Time;durP1;ratioP1;P1;durP2;ratioP2;P2;SDS_P1;SDS_P2;PMS_P1;PMS_P2;Temp;Humidity;BMP_temperature;BMP_pressure;BME280_temperature;BME280_humidity;BME280_pressure;Samples;Min_cycle;Max_cycle;Signal;HPM_P1;HPM_P2
2024/01/17 00:02:04;;;;;;;7.47;3.67;;;;;;;;;;5025702;28;20025;-79
2024/01/17 00:04:30;;;;;;;8.50;3.30;;;;;;;;;;5027537;28;20036;-79
2024/01/17 00:06:57;;;;;;;9.23;3.83;;;;;;;;;;5022412;28;20041;-79
2024/01/17 00:09:23;;;;;;;10.07;4.03;;;;;;;;;;5018594;28;20088;-79
2024/01/17 00:11:50;;;;;;;10.90;4.65;;;;;;;;;;5035963;28;20068;-79
2024/01/17 00:14:16;;;;;;;8.63;3.85;;;;;;;;;;5010652;28;20026;-79
2024/01/17 00:16:42;;;;;;;7.78;3.83;;;;;;;;;;5013138;28;20061;-79
2024/01/17 00:19:08;;;;;;;14.07;4.57;;;;;;;;;;5035248;28;20405;-78
2024/01/17 00:21:34;;;;;;;8.05;3.50;;;;;;;;;;5016141;28;20025;-79
2024/01/17 00:24:00;;;;;;;9.25;3.65;;;;;;;;;;5032742;28;20483;-78
2024/01/17 00:26:26;;;;;;;7.93;3.92;;;;;;;;;;5011607;28;20032;-78
2024/01/17 00:28:52;;;;;;;8.70;3.42;;;;;;;;;;5015387;28;20033;-79
2024/01/17 00:31:18;;;;;;;9.98;3.63;;;;;;;;;;5037866;28;20311;-79
2024/01/17 00:33:44;;;;;;;13.35;4.90;;;;;;;;;;5021322;28;20022;-78
2024/01/17 00:36:10;;;;;;;8.20;4.28;;;;;;;;;;5029297;28;20029;-78
2024/01/17 00:38:36;;;;;;;10.65;4.78;;;;;;;;;;5012370;28;20073;-79
2024/01/17 00:41:05;;;;;;;8.35;4.28;;;;;;;;;;5024988;28;20528;-77
2024/01/17 00:43:32;;;;;;;7.28;4.32;;;;;;;;;;5022834;28;20046;-79
2024/01/17 00:45:59;;;;;;;12.60;4.30;;;;;;;;;;5024844;28;20101;-78
2024/01/17 00:48:25;;;;;;;10.57;4.47;;;;;;;;;;5019013;28;20045;-78
2024/01/17 00:50:51;;;;;;;9.40;4.72;;;;;;;;;;5025404;28;20068;-78
2024/01/17 00:53:17;;;;;;;13.40;4.78;;;;;;;;;;5013814;28;20443;-78
2024/01/17 00:55:43;;;;;;;10.73;5.53;;;;;;;;;;5033073;28;20052;-79
2024/01/17 00:58:09;;;;;;;14.30;5.30;;;;;;;;;;5015977;28;20045;-79
2024/01/17 01:00:35;;;;;;;9.75;4.22;;;;;;;;;;5026184;28;20360;-79
2024/01/17 01:03:01;;;;;;;10.30;4.82;;;;;;;;;;5030446;28;20379;-79
2024/01/17 01:05:27;;;;;;;11.98;5.80;;;;;;;;;;5018490;28;20434;-79
2024/01/17 01:07:53;;;;;;;10.50;4.70;;;;;;;;;;5029099;28;20060;-80
2024/01/17 01:10:19;;;;;;;12.48;6.25;;;;;;;;;;5017917;28;20029;-80
2024/01/17 01:12:45;;;;;;;11.70;5.20;;;;;;;;;;5011640;28;20405;-79
2024/01/17 01:15:11;;;;;;;13.48;4.88;;;;;;;;;;5017283;28;20032;-79
2024/01/17 01:17:37;;;;;;;9.02;5.18;;;;;;;;;;5010843;28;20033;-79
2024/01/17 01:20:03;;;;;;;7.65;4.30;;;;;;;;;;5019568;28;20026;-79
2024/01/17 01:22:29;;;;;;;11.63;5.18;;;;;;;;;;5028851;28;20438;-77
2024/01/17 01:24:55;;;;;;;13.80;5.07;;;;;;;;;;5025880;28;20109;-79
2024/01/17 01:27:21;;;;;;;9.68;4.85;;;;;;;;;;5013282;28;20041;-78
2024/01/17 01:29:47;;;;;;;8.77;5.00;;;;;;;;;;5013379;28;20037;-79
2024/01/17 01:32:13;;;;;;;13.82;5.25;;;;;;;;;;5024449;28;20132;-79
2024/01/17 01:34:39;;;;;;;10.05;4.88;;;;;;;;;;5013325;28;20021;-79
2024/01/17 01:37:06;;;;;;;11.48;4.72;;;;;;;;;;5017703;28;20061;-79
2024/01/17 01:39:32;;;;;;;11.68;5.78;;;;;;;;;;5014334;28;20045;-79
2024/01/17 01:41:58;;;;;;;11.52;4.90;;;;;;;;;;5019702;28;20087;-79
2024/01/17 01:44:25;;;;;;;15.18;4.78;;;;;;;;;;5027530;28;20026;-79
2024/01/17 01:46:51;;;;;;;11.38;5.40;;;;;;;;;;5018581;28;20033;-78
2024/01/17 01:49:17;;;;;;;15.38;5.63;;;;;;;;;;5027456;28;20133;-78
2024/01/17 01:51:45;;;;;;;10.30;5.43;;;;;;;;;;5015569;28;20030;-78
2024/01/17 01:54:13;;;;;;;9.10;5.22;;;;;;;;;;5010194;28;20045;-78
2024/01/17 01:56:39;;;;;;;12.02;6.07;;;;;;;;;;5009423;28;20033;-79
2024/01/17 01:59:06;;;;;;;12.27;5.55;;;;;;;;;;5023611;28;20100;-78
2024/01/17 02:01:32;;;;;;;14.50;5.90;;;;;;;;;;5018383;28;20127;-78
2024/01/17 02:03:59;;;;;;;10.32;5.20;;;;;;;;;;5013693;28;20026;-79
2024/01/17 02:06:26;;;;;;;11.13;5.50;;;;;;;;;;5016305;28;20149;-79
2024/01/17 02:08:55;;;;;;;12.75;5.38;;;;;;;;;;5009295;28;20042;-79
2024/01/17 02:11:21;;;;;;;8.05;4.95;;;;;;;;;;5014313;28;20651;-79
2024/01/17 02:13:47;;;;;;;11.45;5.40;;;;;;;;;;5023499;28;20040;-79
2024/01/17 02:16:14;;;;;;;10.60;5.65;;;;;;;;;;5017144;28;20476;-79
2024/01/17 02:18:40;;;;;;;10.40;5.28;;;;;;;;;;5029623;28;20414;-79
2024/01/17 02:21:06;;;;;;;10.32;6.03;;;;;;;;;;5023722;28;20474;-79
2024/01/17 02:23:32;;;;;;;10.77;5.75;;;;;;;;;;5019327;28;20033;-79
2024/01/17 02:25:59;;;;;;;14.02;5.60;;;;;;;;;;5022032;28;20073;-80
2024/01/17 02:28:26;;;;;;;11.38;5.25;;;;;;;;;;5011600;28;20329;-79
2024/01/17 02:30:52;;;;;;;17.23;6.47;;;;;;;;;;5016997;28;20061;-78
2024/01/17 02:33:19;;;;;;;12.23;5.60;;;;;;;;;;5017731;28;20029;-79
2024/01/17 02:35:45;;;;;;;12.32;5.90;;;;;;;;;;5027903;28;20486;-79
2024/01/17 02:38:11;;;;;;;12.27;5.72;;;;;;;;;;5020167;28;20037;-79
2024/01/17 02:40:37;;;;;;;9.98;6.38;;;;;;;;;;5008662;28;20388;-79
2024/01/17 02:43:04;;;;;;;10.73;6.18;;;;;;;;;;5007922;28;20040;-79
2024/01/17 02:45:30;;;;;;;14.02;6.07;;;;;;;;;;5023406;28;20030;-79
2024/01/17 02:47:56;;;;;;;13.82;6.43;;;;;;;;;;5013943;28;20053;-80
2024/01/17 02:50:22;;;;;;;10.98;6.28;;;;;;;;;;5027623;28;20041;-80
2024/01/17 02:52:48;;;;;;;15.35;6.90;;;;;;;;;;5012123;28;20716;-79
2024/01/17 02:55:18;;;;;;;12.85;6.13;;;;;;;;;;5008688;28;20030;-79
2024/01/17 02:57:44;;;;;;;13.25;6.50;;;;;;;;;;5023649;28;20108;-78
2024/01/17 03:00:10;;;;;;;12.15;6.47;;;;;;;;;;5025912;28;20026;-78
2024/01/17 03:02:37;;;;;;;13.88;7.38;;;;;;;;;;5025704;28;20120;-78
2024/01/17 03:05:03;;;;;;;15.30;6.03;;;;;;;;;;5031733;28;20473;-78
2024/01/17 03:07:33;;;;;;;16.88;6.88;;;;;;;;;;5027720;28;20076;-79
2024/01/17 03:09:59;;;;;;;14.23;7.03;;;;;;;;;;5013864;28;20049;-78
2024/01/17 03:12:25;;;;;;;11.15;6.15;;;;;;;;;;5019097;28;20048;-78
2024/01/17 03:14:51;;;;;;;14.02;6.50;;;;;;;;;;5018387;28;20026;-79
2024/01/17 03:17:17;;;;;;;14.50;7.28;;;;;;;;;;5008438;28;20038;-78
2024/01/17 03:19:44;;;;;;;17.13;7.68;;;;;;;;;;5015557;28;20467;-78
2024/01/17 03:22:10;;;;;;;11.43;6.95;;;;;;;;;;5020406;28;20034;-78
2024/01/17 03:24:39;;;;;;;11.07;6.75;;;;;;;;;;5017830;28;20037;-78
2024/01/17 03:27:05;;;;;;;18.05;7.15;;;;;;;;;;5008192;28;20030;-78
2024/01/17 03:29:31;;;;;;;14.00;6.43;;;;;;;;;;5012876;28;20052;-78
2024/01/17 03:31:57;;;;;;;15.90;7.85;;;;;;;;;;5024593;28;20032;-77
2024/01/17 03:34:23;;;;;;;13.60;6.93;;;;;;;;;;5014262;28;20071;-77
2024/01/17 03:36:49;;;;;;;16.70;8.35;;;;;;;;;;5024590;28;20032;-78
2024/01/17 03:39:15;;;;;;;14.02;7.70;;;;;;;;;;5042701;28;20294;-79
2024/01/17 03:41:41;;;;;;;17.95;7.53;;;;;;;;;;5010433;28;20043;-79
2024/01/17 03:44:08;;;;;;;14.30;7.90;;;;;;;;;;5010219;28;20064;-78
2024/01/17 03:46:34;;;;;;;15.65;7.32;;;;;;;;;;5033427;28;20091;-78
2024/01/17 03:49:00;;;;;;;16.50;7.50;;;;;;;;;;5008099;28;20419;-78
2024/01/17 03:51:26;;;;;;;12.50;7.15;;;;;;;;;;5012564;28;20030;-78
2024/01/17 03:53:52;;;;;;;15.95;6.68;;;;;;;;;;5013113;28;20418;-78
2024/01/17 03:56:19;;;;;;;10.20;6.68;;;;;;;;;;5040423;28;20494;-78
2024/01/17 03:58:45;;;;;;;21.38;8.43;;;;;;;;;;5026558;28;20033;-77
2024/01/17 04:01:12;;;;;;;16.05;7.10;;;;;;;;;;5013398;28;20471;-78
2024/01/17 04:03:39;;;;;;;13.40;7.28;;;;;;;;;;5027133;28;20058;-78
2024/01/17 04:06:06;;;;;;;15.20;7.65;;;;;;;;;;5012652;28;20479;-78
2024/01/17 04:08:32;;;;;;;15.10;7.60;;;;;;;;;;5008397;28;20435;-77
2024/01/17 04:10:58;;;;;;;18.73;7.78;;;;;;;;;;5022634;28;20498;-78
2024/01/17 04:13:24;;;;;;;14.82;7.00;;;;;;;;;;5044930;28;20063;-78
2024/01/17 04:15:51;;;;;;;13.20;7.68;;;;;;;;;;5025737;28;20040;-78
2024/01/17 04:18:17;;;;;;;17.63;7.25;;;;;;;;;;5026114;28;20458;-79
2024/01/17 04:20:43;;;;;;;15.57;8.05;;;;;;;;;;5021334;28;20107;-79
2024/01/17 04:23:10;;;;;;;13.15;7.45;;;;;;;;;;5011197;28;20296;-79
2024/01/17 04:25:36;;;;;;;11.68;6.95;;;;;;;;;;5011355;28;20383;-79
2024/01/17 04:28:06;;;;;;;14.00;6.78;;;;;;;;;;5026110;28;20041;-79
2024/01/17 04:30:32;;;;;;;13.05;6.90;;;;;;;;;;5027061;28;20053;-79
2024/01/17 04:32:58;;;;;;;9.57;6.60;;;;;;;;;;5031379;28;20037;-81
2024/01/17 04:35:24;;;;;;;16.38;7.72;;;;;;;;;;5016558;28;20042;-80
2024/01/17 04:37:50;;;;;;;18.15;7.32;;;;;;;;;;5014746;28;20022;-79
2024/01/17 04:40:16;;;;;;;14.57;7.53;;;;;;;;;;5020209;28;20081;-79
2024/01/17 04:42:43;;;;;;;11.07;6.75;;;;;;;;;;5017747;28;20034;-79
2024/01/17 04:45:10;;;;;;;15.32;8.05;;;;;;;;;;5027359;28;20553;-80
2024/01/17 04:47:37;;;;;;;24.80;8.00;;;;;;;;;;5016954;28;20369;-80
2024/01/17 04:50:03;;;;;;;19.98;9.05;;;;;;;;;;5017589;28;20055;-81
2024/01/17 04:52:30;;;;;;;11.30;6.55;;;;;;;;;;5006900;28;20045;-79
2024/01/17 04:54:56;;;;;;;12.18;6.93;;;;;;;;;;5011192;28;20501;-78
2024/01/17 04:57:22;;;;;;;14.07;7.30;;;;;;;;;;5024384;28;20467;-78
2024/01/17 04:59:48;;;;;;;21.08;7.55;;;;;;;;;;5021162;28;20120;-79
2024/01/17 05:02:14;;;;;;;16.33;7.10;;;;;;;;;;5017748;28;20057;-80
2024/01/17 05:04:40;;;;;;;11.50;7.20;;;;;;;;;;5017693;28;20442;-80
2024/01/17 05:07:06;;;;;;;16.17;7.57;;;;;;;;;;5018370;28;20840;-79
2024/01/17 05:09:32;;;;;;;11.38;6.53;;;;;;;;;;5009355;28;20651;-79
2024/01/17 05:11:58;;;;;;;16.35;8.00;;;;;;;;;;5027519;28;20491;-79
2024/01/17 05:14:24;;;;;;;18.70;7.93;;;;;;;;;;5028974;28;20117;-79
2024/01/17 05:16:51;;;;;;;21.63;9.48;;;;;;;;;;5013501;28;20499;-80
2024/01/17 05:19:17;;;;;;;21.58;8.25;;;;;;;;;;5009976;28;20041;-79
2024/01/17 05:21:43;;;;;;;18.52;9.43;;;;;;;;;;5036219;28;20049;-76
2024/01/17 05:24:09;;;;;;;20.42;8.45;;;;;;;;;;5017876;28;20511;-78
2024/01/17 05:26:35;;;;;;;16.33;8.10;;;;;;;;;;5015246;28;20499;-78
2024/01/17 05:29:02;;;;;;;14.23;7.45;;;;;;;;;;5015685;28;20086;-78
2024/01/17 05:31:28;;;;;;;16.40;8.43;;;;;;;;;;5021249;28;20409;-78
2024/01/17 05:33:54;;;;;;;14.02;9.25;;;;;;;;;;5027554;28;20042;-78
2024/01/17 05:36:20;;;;;;;18.00;7.60;;;;;;;;;;5014755;28;20025;-78
2024/01/17 05:38:46;;;;;;;16.23;8.05;;;;;;;;;;5022334;28;20033;-79
2024/01/17 05:41:12;;;;;;;15.75;8.40;;;;;;;;;;5009874;28;20034;-78
2024/01/17 05:43:38;;;;;;;17.77;8.55;;;;;;;;;;5014119;28;20553;-78
2024/01/17 05:46:04;;;;;;;16.05;8.18;;;;;;;;;;5018177;28;20033;-79
2024/01/17 05:48:30;;;;;;;16.40;8.07;;;;;;;;;;5020557;28;20042;-79
2024/01/17 05:50:56;;;;;;;17.65;7.82;;;;;;;;;;5009478;28;20061;-78
2024/01/17 05:53:22;;;;;;;16.67;8.85;;;;;;;;;;5017158;28;20052;-79
2024/01/17 05:55:48;;;;;;;20.48;7.88;;;;;;;;;;5010153;28;20081;-79
2024/01/17 05:58:14;;;;;;;20.23;8.38;;;;;;;;;;5010380;28;20041;-79
2024/01/17 06:00:40;;;;;;;16.42;8.23;;;;;;;;;;5014590;28;20455;-78
2024/01/17 06:03:07;;;;;;;16.45;7.68;;;;;;;;;;5007831;28;20305;-79
2024/01/17 06:05:33;;;;;;;20.38;8.35;;;;;;;;;;5013464;28;20103;-78
2024/01/17 06:07:59;;;;;;;16.15;8.15;;;;;;;;;;5028119;28;20072;-79
2024/01/17 06:10:27;;;;;;;26.85;8.85;;;;;;;;;;5027678;28;20026;-79
2024/01/17 06:12:53;;;;;;;20.45;8.27;;;;;;;;;;5033770;28;20037;-79
2024/01/17 06:15:19;;;;;;;17.42;8.98;;;;;;;;;;5019634;28;20079;-79
2024/01/17 06:17:45;;;;;;;16.95;7.70;;;;;;;;;;5025365;28;20033;-79
2024/01/17 06:20:11;;;;;;;15.55;7.90;;;;;;;;;;5020019;28;20029;-79
2024/01/17 06:22:38;;;;;;;16.33;7.95;;;;;;;;;;5038236;28;20025;-79
2024/01/17 06:25:07;;;;;;;15.30;7.32;;;;;;;;;;5029727;28;20076;-79
2024/01/17 06:27:33;;;;;;;15.80;8.05;;;;;;;;;;5022088;28;20368;-78
2024/01/17 06:29:59;;;;;;;15.00;7.82;;;;;;;;;;5033428;28;20026;-79
2024/01/17 06:32:25;;;;;;;18.02;7.35;;;;;;;;;;5041553;28;20033;-78
2024/01/17 06:34:51;;;;;;;13.93;7.05;;;;;;;;;;5015727;28;20026;-78
2024/01/17 06:37:17;;;;;;;12.50;7.60;;;;;;;;;;5026228;28;20034;-78
2024/01/17 06:39:44;;;;;;;15.07;7.25;;;;;;;;;;5018204;28;20390;-79
2024/01/17 06:42:10;;;;;;;14.30;7.35;;;;;;;;;;5011092;28;20034;-78
2024/01/17 06:44:36;;;;;;;15.82;7.07;;;;;;;;;;5009453;28;20030;-79
2024/01/17 06:47:03;;;;;;;14.70;7.88;;;;;;;;;;5015982;28;20038;-79
2024/01/17 06:49:29;;;;;;;18.63;8.35;;;;;;;;;;5028161;28;20534;-79
2024/01/17 06:51:56;;;;;;;28.58;9.38;;;;;;;;;;5008533;28;20064;-79
2024/01/17 06:54:22;;;;;;;14.68;7.90;;;;;;;;;;5022764;28;20021;-78
2024/01/17 06:56:48;;;;;;;17.25;8.20;;;;;;;;;;5032878;28;20482;-79
2024/01/17 06:59:16;;;;;;;12.98;7.55;;;;;;;;;;5028612;28;20040;-79
2024/01/17 07:01:42;;;;;;;14.40;7.50;;;;;;;;;;5021989;28;20059;-79
2024/01/17 07:04:08;;;;;;;13.45;7.55;;;;;;;;;;5027733;28;20049;-78
2024/01/17 07:06:34;;;;;;;14.65;8.02;;;;;;;;;;5035270;28;20498;-78
2024/01/17 07:09:00;;;;;;;19.02;6.85;;;;;;;;;;5037084;28;20091;-79
2024/01/17 07:11:26;;;;;;;16.05;7.72;;;;;;;;;;5027587;28;20545;-78
2024/01/17 07:13:52;;;;;;;17.75;8.38;;;;;;;;;;5011316;28;20467;-78
2024/01/17 07:16:19;;;;;;;13.93;7.57;;;;;;;;;;5026768;28;20022;-79
2024/01/17 07:18:45;;;;;;;22.83;7.53;;;;;;;;;;5014388;28;20041;-80
2024/01/17 07:21:11;;;;;;;15.45;7.47;;;;;;;;;;5007919;28;20468;-79
2024/01/17 07:23:40;;;;;;;15.82;7.57;;;;;;;;;;5010967;28;20391;-78
2024/01/17 07:26:07;;;;;;;17.40;8.10;;;;;;;;;;5008363;28;20496;-78
2024/01/17 07:28:33;;;;;;;14.70;7.32;;;;;;;;;;5009095;28;20026;-79
2024/01/17 07:30:59;;;;;;;14.05;7.93;;;;;;;;;;5014208;28;20037;-80
2024/01/17 07:33:26;;;;;;;17.75;8.43;;;;;;;;;;5017052;28;20038;-79
2024/01/17 07:35:52;;;;;;;14.50;7.22;;;;;;;;;;5028661;28;20083;-79
2024/01/17 07:38:18;;;;;;;14.93;6.72;;;;;;;;;;5017830;28;20379;-79
2024/01/17 07:40:44;;;;;;;12.57;7.38;;;;;;;;;;5020675;28;20497;-77
2024/01/17 07:43:10;;;;;;;13.80;6.80;;;;;;;;;;5013702;28;20034;-78
2024/01/17 07:45:36;;;;;;;19.00;7.38;;;;;;;;;;5013724;28;20037;-79
2024/01/17 07:48:02;;;;;;;17.92;7.63;;;;;;;;;;5015698;28;20057;-79
2024/01/17 07:50:28;;;;;;;19.90;7.88;;;;;;;;;;5017982;28;20494;-80
2024/01/17 07:52:55;;;;;;;17.02;8.52;;;;;;;;;;5017144;28;20029;-79
2024/01/17 07:55:21;;;;;;;17.77;8.32;;;;;;;;;;5022396;28;20090;-80
2024/01/17 07:57:47;;;;;;;14.88;7.93;;;;;;;;;;5031026;28;20041;-80
2024/01/17 08:00:13;;;;;;;20.52;8.68;;;;;;;;;;5013800;28;20080;-80
2024/01/17 08:02:40;;;;;;;16.30;7.88;;;;;;;;;;5028975;28;20030;-79
2024/01/17 08:05:06;;;;;;;15.50;7.80;;;;;;;;;;5027725;28;20068;-79
2024/01/17 08:07:33;;;;;;;15.32;7.93;;;;;;;;;;5021189;28;20501;-79
2024/01/17 08:09:59;;;;;;;13.82;7.45;;;;;;;;;;5033289;28;20402;-78
2024/01/17 08:12:25;;;;;;;15.50;8.10;;;;;;;;;;5020770;28;20031;-80
2024/01/17 08:14:52;;;;;;;20.63;8.05;;;;;;;;;;5015676;28;20049;-78
2024/01/17 08:17:18;;;;;;;19.67;8.75;;;;;;;;;;5042186;28;20041;-80
2024/01/17 08:19:45;;;;;;;13.15;7.35;;;;;;;;;;5013374;28;20044;-79
2024/01/17 08:22:11;;;;;;;15.00;7.80;;;;;;;;;;5031820;28;20056;-80
2024/01/17 08:24:37;;;;;;;14.18;7.18;;;;;;;;;;5028721;28;20472;-78
2024/01/17 08:27:03;;;;;;;16.67;8.02;;;;;;;;;;5030637;28;20544;-79
2024/01/17 08:29:29;;;;;;;18.38;8.43;;;;;;;;;;5030758;28;20045;-79
2024/01/17 08:31:55;;;;;;;16.23;8.85;;;;;;;;;;5026360;28;20483;-80
2024/01/17 08:34:22;;;;;;;14.95;8.45;;;;;;;;;;5025607;28;20037;-80
2024/01/17 08:39:51;;;;;;;18.23;7.75;;;;;;;;;;5368201;23;20821;-83
2024/01/17 08:50:14;;;;;;;15.98;7.30;;;;;;;;;;5537728;23;20669;-81
2024/01/17 08:52:40;;;;;;;11.90;6.70;;;;;;;;;;5030955;28;20383;-82
2024/01/17 08:55:08;;;;;;;15.90;7.45;;;;;;;;;;5027729;28;20056;-81
2024/01/17 08:57:38;;;;;;;15.07;7.05;;;;;;;;;;5019001;28;20257;-80
2024/01/17 09:00:08;;;;;;;14.65;7.60;;;;;;;;;;5023726;28;20492;-82
2024/01/17 09:02:34;;;;;;;13.50;6.90;;;;;;;;;;5027080;28;20030;-82
2024/01/17 09:05:00;;;;;;;14.57;6.82;;;;;;;;;;5017711;28;20036;-82
2024/01/17 09:07:26;;;;;;;16.58;7.47;;;;;;;;;;5011348;28;20092;-82
2024/01/17 09:09:52;;;;;;;14.65;7.07;;;;;;;;;;5021173;28;20041;-80
2024/01/17 09:12:19;;;;;;;14.98;8.50;;;;;;;;;;5025013;28;20029;-82
2024/01/17 09:14:45;;;;;;;16.02;8.95;;;;;;;;;;5017561;28;20384;-81
2024/01/17 09:17:11;;;;;;;14.80;8.10;;;;;;;;;;5014610;28;20057;-82
2024/01/17 09:19:38;;;;;;;16.10;7.32;;;;;;;;;;5010373;28;20045;-80
2024/01/17 09:22:04;;;;;;;15.82;7.03;;;;;;;;;;5010859;28;20068;-81
2024/01/17 09:24:30;;;;;;;18.27;7.47;;;;;;;;;;5022862;28;20560;-82
2024/01/17 09:26:56;;;;;;;15.93;7.20;;;;;;;;;;5014585;28;20480;-82
2024/01/17 09:29:22;;;;;;;19.95;6.75;;;;;;;;;;5015762;28;20739;-83
2024/01/17 09:31:50;;;;;;;14.73;7.70;;;;;;;;;;5027063;28;20026;-81
2024/01/17 09:34:16;;;;;;;14.45;7.25;;;;;;;;;;5020723;28;20112;-82
2024/01/17 09:36:42;;;;;;;15.85;7.13;;;;;;;;;;5027196;28;20025;-82
2024/01/17 09:39:09;;;;;;;14.88;7.57;;;;;;;;;;5019956;28;20060;-80
2024/01/17 09:41:35;;;;;;;12.10;6.68;;;;;;;;;;5020940;28;20554;-81
2024/01/17 09:44:01;;;;;;;14.02;7.50;;;;;;;;;;5030071;28;20025;-82
2024/01/17 09:46:29;;;;;;;15.32;7.43;;;;;;;;;;5030322;28;20029;-82
2024/01/17 09:48:55;;;;;;;13.63;6.97;;;;;;;;;;5036493;28;20686;-83
2024/01/17 09:51:24;;;;;;;12.40;7.00;;;;;;;;;;5023354;28;20526;-81
2024/01/17 09:53:53;;;;;;;13.55;6.85;;;;;;;;;;5018959;28;20029;-84
2024/01/17 09:56:21;;;;;;;17.58;7.45;;;;;;;;;;5019468;28;20086;-82
2024/01/17 09:58:49;;;;;;;14.18;6.82;;;;;;;;;;5021728;28;20037;-81
2024/01/17 10:01:16;;;;;;;12.68;6.82;;;;;;;;;;5018566;28;20033;-82
2024/01/17 10:03:43;;;;;;;20.75;7.18;;;;;;;;;;5023967;28;20540;-84
2024/01/17 10:06:10;;;;;;;21.35;8.68;;;;;;;;;;5022551;28;20064;-82
2024/01/17 10:08:36;;;;;;;28.45;11.68;;;;;;;;;;5025463;28;20056;-81
2024/01/17 10:11:03;;;;;;;16.73;8.73;;;;;;;;;;5027026;28;20102;-82
2024/01/17 10:13:29;;;;;;;19.83;8.15;;;;;;;;;;5020587;28;20029;-83
2024/01/17 10:16:00;;;;;;;13.45;6.50;;;;;;;;;;5020034;28;20036;-81
2024/01/17 10:18:26;;;;;;;12.35;7.60;;;;;;;;;;5020412;28;20035;-82
2024/01/17 10:20:54;;;;;;;12.07;7.25;;;;;;;;;;5024756;28;20029;-83
2024/01/17 10:23:20;;;;;;;12.77;6.80;;;;;;;;;;5016425;28;20033;-81
2024/01/17 10:25:46;;;;;;;12.82;6.90;;;;;;;;;;5009520;28;20033;-79
2024/01/17 10:28:12;;;;;;;14.45;6.15;;;;;;;;;;5016362;28;20034;-82
2024/01/17 10:30:39;;;;;;;14.93;6.47;;;;;;;;;;5026541;28;20037;-81
2024/01/17 10:33:07;;;;;;;14.55;6.65;;;;;;;;;;5009236;28;20030;-83
2024/01/17 10:35:33;;;;;;;14.13;6.13;;;;;;;;;;5017238;28;20045;-80
2024/01/17 10:38:00;;;;;;;16.67;6.30;;;;;;;;;;5018265;28;20034;-82
2024/01/17 10:40:26;;;;;;;16.73;7.78;;;;;;;;;;5015142;28;20083;-82
2024/01/17 10:43:09;;;;;;;14.65;7.03;;;;;;;;;;5028908;28;20037;-82
2024/01/17 10:45:35;;;;;;;12.45;5.80;;;;;;;;;;5016922;28;20708;-81
2024/01/17 10:48:02;;;;;;;15.88;6.45;;;;;;;;;;5028917;28;20087;-82
2024/01/17 10:50:28;;;;;;;12.00;5.88;;;;;;;;;;5013946;28;20057;-82
2024/01/17 10:52:59;;;;;;;13.60;6.38;;;;;;;;;;5019741;28;20434;-77
2024/01/17 10:55:28;;;;;;;15.68;8.57;;;;;;;;;;5026845;28;20069;-81
2024/01/17 10:57:55;;;;;;;22.40;6.47;;;;;;;;;;5026520;28;20096;-81
2024/01/17 11:00:26;;;;;;;21.85;7.10;;;;;;;;;;5022456;28;20403;-81
2024/01/17 11:02:52;;;;;;;14.43;6.85;;;;;;;;;;5011735;28;20647;-82
2024/01/17 11:05:20;;;;;;;12.63;6.43;;;;;;;;;;5019960;28;20069;-79
2024/01/17 11:07:47;;;;;;;12.45;6.15;;;;;;;;;;5009369;28;20034;-81
2024/01/17 11:10:14;;;;;;;9.90;5.95;;;;;;;;;;5015129;28;20400;-82
2024/01/17 11:12:41;;;;;;;14.23;6.10;;;;;;;;;;5009084;28;20582;-79
2024/01/17 11:15:08;;;;;;;11.90;5.55;;;;;;;;;;5012999;28;20026;-82
2024/01/17 11:17:35;;;;;;;15.45;5.88;;;;;;;;;;5023515;28;20095;-83
2024/01/17 11:20:07;;;;;;;10.00;5.80;;;;;;;;;;5016343;28;20030;-80
2024/01/17 11:22:33;;;;;;;12.13;6.55;;;;;;;;;;5028705;28;20116;-80
2024/01/17 11:25:06;;;;;;;13.27;6.20;;;;;;;;;;5022810;28;20029;-81
2024/01/17 11:27:35;;;;;;;9.75;5.78;;;;;;;;;;5015511;28;20220;-81
2024/01/17 11:30:01;;;;;;;9.00;5.85;;;;;;;;;;5015936;28;20064;-83
2024/01/17 11:32:36;;;;;;;12.32;5.68;;;;;;;;;;5031468;28;20391;-80
2024/01/17 11:35:02;;;;;;;10.27;5.90;;;;;;;;;;5030331;28;20422;-81
2024/01/17 11:37:33;;;;;;;14.30;6.13;;;;;;;;;;5039177;28;20029;-81
2024/01/17 11:40:01;;;;;;;13.30;5.82;;;;;;;;;;5041907;28;20481;-80
2024/01/17 11:42:27;;;;;;;13.02;5.93;;;;;;;;;;5027109;28;20041;-78
2024/01/17 11:44:53;;;;;;;10.23;5.82;;;;;;;;;;5012169;28;20026;-80
2024/01/17 11:47:23;;;;;;;14.50;6.05;;;;;;;;;;5036769;28;20148;-81
2024/01/17 11:49:49;;;;;;;13.60;5.70;;;;;;;;;;5030989;28;20489;-80
2024/01/17 11:52:35;;;;;;;10.70;5.35;;;;;;;;;;5010681;28;20037;-78
2024/01/17 11:55:02;;;;;;;14.27;5.68;;;;;;;;;;5015897;28;20021;-79
2024/01/17 11:57:32;;;;;;;14.88;6.10;;;;;;;;;;5031321;28;20045;-80
2024/01/17 12:00:09;;;;;;;10.60;5.35;;;;;;;;;;5031158;28;20532;-80
2024/01/17 12:02:39;;;;;;;12.07;5.63;;;;;;;;;;5017448;28;20388;-82
2024/01/17 12:05:08;;;;;;;10.57;5.82;;;;;;;;;;5031438;28;20091;-81
2024/01/17 12:07:42;;;;;;;28.35;5.95;;;;;;;;;;5030561;28;20037;-82
2024/01/17 12:10:10;;;;;;;10.13;5.88;;;;;;;;;;5046148;28;20403;-82
2024/01/17 12:12:48;;;;;;;26.65;8.20;;;;;;;;;;5049992;28;20040;-78
2024/01/17 12:15:14;;;;;;;8.38;5.38;;;;;;;;;;5025694;28;20068;-81
2024/01/17 12:17:41;;;;;;;12.18;5.80;;;;;;;;;;5026761;28;20398;-78
2024/01/17 12:20:08;;;;;;;9.02;6.05;;;;;;;;;;5019635;28;20037;-79
2024/01/17 12:22:34;;;;;;;13.57;5.78;;;;;;;;;;5021325;28;20159;-79
2024/01/17 12:25:00;;;;;;;35.65;15.63;;;;;;;;;;5028941;28;20112;-83
2024/01/17 12:27:30;;;;;;;14.43;6.80;;;;;;;;;;5025744;28;20054;-80
2024/01/17 12:29:57;;;;;;;15.40;6.10;;;;;;;;;;5019757;28;20036;-80
2024/01/17 12:32:24;;;;;;;14.60;6.18;;;;;;;;;;5022894;28;20053;-81
2024/01/17 12:34:50;;;;;;;13.10;6.22;;;;;;;;;;5013116;28;21455;-81
2024/01/17 12:37:16;;;;;;;8.15;5.03;;;;;;;;;;5022417;28;20041;-82
2024/01/17 12:39:42;;;;;;;8.30;5.43;;;;;;;;;;5022308;28;20538;-82
2024/01/17 12:42:08;;;;;;;14.85;6.40;;;;;;;;;;5023865;28;20403;-78
2024/01/17 12:44:35;;;;;;;17.80;8.40;;;;;;;;;;5031295;28;20613;-79
2024/01/17 12:47:01;;;;;;;19.70;7.15;;;;;;;;;;5038427;28;20060;-79
2024/01/17 12:49:30;;;;;;;14.52;5.65;;;;;;;;;;5042615;28;21440;-79
2024/01/17 12:51:56;;;;;;;27.98;12.43;;;;;;;;;;5041598;28;20403;-78
2024/01/17 12:54:23;;;;;;;16.08;8.13;;;;;;;;;;5045266;28;20038;-78
2024/01/17 12:56:50;;;;;;;19.48;9.68;;;;;;;;;;5037301;28;20025;-79
2024/01/17 12:59:17;;;;;;;13.43;8.38;;;;;;;;;;5026431;28;20376;-79
2024/01/17 13:01:43;;;;;;;27.90;13.70;;;;;;;;;;5028508;28;20034;-79
2024/01/17 13:04:09;;;;;;;25.05;14.20;;;;;;;;;;5031062;28;20060;-77
2024/01/17 13:06:48;;;;;;;25.95;13.18;;;;;;;;;;5043786;28;20395;-78
2024/01/17 13:09:16;;;;;;;12.68;8.02;;;;;;;;;;5036483;28;20033;-78
2024/01/17 13:11:46;;;;;;;10.00;7.05;;;;;;;;;;5033664;28;20037;-78
2024/01/17 13:14:15;;;;;;;11.57;6.63;;;;;;;;;;5026714;28;20030;-78
2024/01/17 13:16:41;;;;;;;10.25;5.47;;;;;;;;;;5030212;28;20029;-79
2024/01/17 13:19:12;;;;;;;9.40;5.90;;;;;;;;;;5025628;28;20042;-79
2024/01/17 13:21:38;;;;;;;19.30;8.73;;;;;;;;;;5042664;28;20059;-79
2024/01/17 13:24:05;;;;;;;13.77;6.35;;;;;;;;;;5027572;28;20088;-79
2024/01/17 13:26:35;;;;;;;11.05;6.65;;;;;;;;;;5039400;28;20075;-79
2024/01/17 13:29:01;;;;;;;13.93;7.32;;;;;;;;;;5027549;28;20034;-79
2024/01/17 13:31:27;;;;;;;12.18;5.63;;;;;;;;;;5025279;28;20120;-79
2024/01/17 13:33:53;;;;;;;14.70;6.85;;;;;;;;;;5028187;28;20024;-78
2024/01/17 13:36:20;;;;;;;18.42;7.50;;;;;;;;;;5023600;28;20486;-78
2024/01/17 13:38:46;;;;;;;19.85;9.23;;;;;;;;;;5015925;28;20041;-78
2024/01/17 13:41:14;;;;;;;14.75;7.68;;;;;;;;;;5018899;28;20116;-78
2024/01/17 13:43:41;;;;;;;21.98;11.13;;;;;;;;;;5023430;28;20033;-79
2024/01/17 13:46:07;;;;;;;15.82;6.43;;;;;;;;;;5025856;28;20033;-79
2024/01/17 13:48:33;;;;;;;13.07;6.93;;;;;;;;;;5020790;28;20038;-79
2024/01/17 13:51:00;;;;;;;10.55;6.40;;;;;;;;;;5026985;28;20060;-79
2024/01/17 13:53:31;;;;;;;16.20;7.85;;;;;;;;;;5026054;28;20060;-79
2024/01/17 13:55:57;;;;;;;17.05;8.68;;;;;;;;;;5027462;28;20038;-79
2024/01/17 13:58:24;;;;;;;19.10;10.35;;;;;;;;;;5026927;28;20042;-79
2024/01/17 14:00:55;;;;;;;11.70;6.32;;;;;;;;;;5027361;28;20022;-79
2024/01/17 14:03:21;;;;;;;16.23;6.38;;;;;;;;;;5029937;28;20112;-78
2024/01/17 14:05:48;;;;;;;15.05;8.52;;;;;;;;;;5029732;28;20033;-78
2024/01/17 14:08:14;;;;;;;15.27;8.75;;;;;;;;;;5028423;28;20382;-78
2024/01/17 14:10:40;;;;;;;16.40;9.48;;;;;;;;;;5026810;28;20037;-78
2024/01/17 14:13:06;;;;;;;15.43;7.47;;;;;;;;;;5029263;28;20034;-77
2024/01/17 14:15:32;;;;;;;10.20;6.65;;;;;;;;;;5032211;28;20121;-80
2024/01/17 14:17:59;;;;;;;14.07;8.23;;;;;;;;;;5028896;28;20048;-79
2024/01/17 14:20:25;;;;;;;11.60;5.93;;;;;;;;;;5021549;28;20034;-79
2024/01/17 14:22:53;;;;;;;15.05;7.20;;;;;;;;;;5029474;28;20021;-79
2024/01/17 14:25:19;;;;;;;13.02;6.40;;;;;;;;;;5027122;28;20021;-78
2024/01/17 14:27:45;;;;;;;13.90;6.72;;;;;;;;;;5029038;28;20044;-78
2024/01/17 14:30:12;;;;;;;12.52;6.10;;;;;;;;;;5029187;28;20060;-78
2024/01/17 14:32:39;;;;;;;12.13;6.70;;;;;;;;;;5027046;28;20029;-78
2024/01/17 14:35:07;;;;;;;13.68;6.93;;;;;;;;;;5028397;28;20025;-78
2024/01/17 14:37:36;;;;;;;13.18;7.15;;;;;;;;;;5028733;28;20033;-78
2024/01/17 14:40:02;;;;;;;16.48;6.85;;;;;;;;;;5028895;28;20033;-79